createdAt,value
2019-03-15T00:00:18.296Z,16.05
2019-03-15T00:02:47.283Z,15.20
2019-03-15T00:05:17.400Z,15.85
2019-03-15T00:07:47.779Z,15.23
2019-03-15T00:10:19.694Z,14.05
2019-03-15T00:12:50.199Z,13.85
2019-03-15T00:15:18.776Z,15.45
2019-03-15T00:17:47.534Z,14.75
2019-03-15T00:20:17.721Z,14.38
2019-03-15T00:22:50.238Z,13.25
2019-03-15T00:25:21.318Z,13.45
2019-03-15T00:27:55.720Z,12.68
2019-03-15T00:30:25.816Z,13.72
2019-03-15T00:32:54.725Z,12.65
2019-03-15T00:35:29.438Z,12.45
2019-03-15T00:38:06.699Z,12.68
2019-03-15T00:40:36.030Z,12.28
2019-03-15T00:43:06.788Z,11.20
2019-03-15T00:45:36.834Z,12.82
2019-03-15T00:48:06.654Z,10.68
2019-03-15T00:50:39.887Z,12.07
2019-03-15T00:53:12.020Z,10.40
2019-03-15T00:55:43.203Z,12.58
2019-03-15T00:58:13.320Z,12.88
2019-03-15T01:00:45.864Z,11.00
2019-03-15T01:03:25.958Z,11.08
2019-03-15T01:05:59.085Z,12.37
2019-03-15T01:08:29.816Z,12.80
2019-03-15T01:11:00.305Z,13.95
2019-03-15T01:13:33.978Z,12.98
2019-03-15T01:16:04.267Z,13.65
2019-03-15T01:18:42.815Z,14.60
2019-03-15T01:21:14.431Z,14.85
2019-03-15T01:23:45.137Z,15.38
2019-03-15T01:26:14.029Z,14.98
2019-03-15T01:28:47.907Z,14.70
2019-03-15T01:31:24.634Z,15.32
2019-03-15T01:34:04.394Z,15.20
2019-03-15T01:36:33.958Z,15.55
2019-03-15T01:39:02.544Z,16.40
2019-03-15T01:41:32.833Z,15.23
2019-03-15T01:44:03.871Z,14.80
2019-03-15T01:46:41.186Z,15.58
2019-03-15T01:49:10.618Z,15.70
2019-03-15T01:51:44.190Z,16.35
2019-03-15T01:54:13.689Z,15.90
2019-03-15T01:56:48.546Z,16.10
2019-03-15T02:00:27.256Z,17.17
2019-03-15T02:03:02.250Z,15.98
2019-03-15T02:05:34.563Z,16.95
2019-03-15T02:08:03.250Z,15.53
2019-03-15T02:10:43.352Z,14.30
2019-03-15T02:13:17.264Z,16.25
2019-03-15T02:15:50.077Z,16.30
2019-03-15T02:18:20.186Z,16.10
2019-03-15T02:20:48.853Z,16.35
2019-03-15T02:23:18.955Z,16.25
2019-03-15T02:25:53.432Z,15.40
2019-03-15T02:28:22.098Z,16.20
2019-03-15T02:31:08.272Z,15.70
2019-03-15T02:33:43.053Z,16.48
2019-03-15T02:36:27.110Z,15.60
2019-03-15T02:38:56.956Z,15.13
2019-03-15T02:41:27.466Z,15.13
2019-03-15T02:43:59.225Z,15.93
2019-03-15T02:46:28.730Z,15.75
2019-03-15T02:49:16.106Z,14.55
2019-03-15T02:51:49.950Z,14.10
2019-03-15T02:54:18.759Z,14.45
2019-03-15T02:56:50.674Z,15.13
2019-03-15T03:00:10.852Z,14.15
2019-03-15T03:02:40.457Z,15.13
2019-03-15T03:05:19.257Z,14.05
2019-03-15T03:07:49.186Z,14.50
2019-03-15T03:10:21.661Z,13.90
2019-03-15T03:15:27.631Z,13.88
2019-03-15T03:17:56.285Z,14.65
2019-03-15T03:20:25.593Z,13.08
2019-03-15T03:23:04.034Z,12.30
2019-03-15T03:25:40.468Z,12.10
2019-03-15T03:28:15.632Z,11.93
2019-03-15T03:30:47.682Z,11.93
2019-03-15T03:33:17.193Z,11.57
2019-03-15T03:35:56.154Z,11.55
2019-03-15T03:38:24.729Z,10.75
2019-03-15T03:40:56.692Z,11.22
2019-03-15T03:43:31.781Z,11.78
2019-03-15T03:46:09.833Z,9.83
2019-03-15T03:48:49.619Z,10.38
2019-03-15T03:51:20.173Z,10.70
2019-03-15T03:53:52.241Z,10.78
2019-03-15T03:56:23.332Z,10.85
2019-03-15T03:58:54.587Z,10.45
2019-03-15T04:01:23.293Z,10.72
2019-03-15T04:03:53.402Z,11.88
2019-03-15T04:06:32.023Z,10.50
2019-03-15T04:09:09.535Z,9.88
2019-03-15T04:11:54.644Z,10.65
2019-03-15T04:14:16.869Z,9.90
2019-03-15T04:16:47.062Z,10.68
2019-03-15T04:19:45.630Z,10.28
2019-03-15T04:22:33.246Z,9.95
2019-03-15T04:25:08.307Z,10.18
2019-03-15T04:27:42.843Z,10.00
2019-03-15T04:30:18.707Z,10.50
2019-03-15T04:32:59.562Z,9.98
2019-03-15T04:35:28.670Z,10.15
2019-03-15T04:38:06.758Z,9.60
2019-03-15T04:40:44.118Z,10.30
2019-03-15T04:43:14.284Z,9.25
2019-03-15T04:45:45.432Z,9.53
2019-03-15T04:48:14.401Z,8.98
2019-03-15T04:50:46.722Z,9.13
2019-03-15T04:53:19.511Z,10.05
2019-03-15T04:55:48.165Z,9.93
2019-03-15T04:58:19.098Z,9.38
2019-03-15T05:00:56.780Z,9.85
2019-03-15T05:03:29.254Z,10.50
2019-03-15T05:08:37.732Z,9.23
2019-03-15T05:11:17.270Z,9.60
2019-03-15T05:13:58.983Z,9.73
2019-03-15T05:16:30.478Z,9.63
2019-03-15T05:19:20.261Z,9.53
2019-03-15T05:21:51.439Z,9.75
2019-03-15T05:24:20.018Z,9.33
2019-03-15T05:26:48.618Z,9.55
2019-03-15T05:29:17.184Z,11.48
2019-03-15T05:31:47.647Z,10.30
2019-03-15T05:34:19.387Z,10.45
2019-03-15T05:36:50.192Z,11.48
2019-03-15T05:39:19.099Z,10.60
2019-03-15T05:41:47.654Z,9.80
2019-03-15T05:44:20.186Z,9.70
2019-03-15T05:49:17.549Z,9.93
2019-03-15T05:51:46.229Z,10.75
2019-03-15T05:54:14.822Z,10.53
2019-03-15T05:56:45.807Z,10.13
2019-03-15T05:59:16.695Z,11.40
2019-03-15T06:01:47.132Z,10.25
2019-03-15T06:04:18.769Z,10.63
2019-03-15T06:06:49.284Z,10.40
2019-03-15T06:09:31.828Z,9.85
2019-03-15T06:12:00.464Z,9.65
2019-03-15T06:14:29.044Z,9.33
2019-03-15T06:16:59.163Z,9.75
2019-03-15T06:19:28.690Z,9.28
2019-03-15T06:21:57.275Z,9.40
2019-03-15T06:24:26.087Z,9.75
2019-03-15T06:26:57.089Z,9.45
2019-03-15T06:29:25.671Z,9.45
2019-03-15T06:31:54.263Z,10.75
2019-03-15T06:34:24.856Z,10.50
2019-03-15T06:36:54.382Z,10.82
2019-03-15T06:39:22.968Z,10.63
2019-03-15T06:41:51.585Z,9.40
2019-03-15T06:44:20.341Z,10.23
2019-03-15T06:46:50.197Z,11.48
2019-03-15T06:49:26.121Z,10.25
2019-03-15T06:51:55.739Z,10.80
2019-03-15T06:54:25.304Z,11.08
2019-03-15T06:56:54.797Z,9.88
2019-03-15T06:59:31.737Z,11.18
2019-03-15T07:02:00.358Z,11.25
2019-03-15T07:04:31.724Z,12.60
2019-03-15T07:07:07.175Z,13.10
2019-03-15T07:09:45.113Z,12.30
2019-03-15T07:12:15.180Z,13.83
2019-03-15T07:14:43.744Z,11.65
2019-03-15T07:17:13.275Z,11.20
2019-03-15T07:19:41.914Z,12.10
2019-03-15T07:22:13.505Z,12.20
2019-03-15T07:24:43.776Z,11.77
2019-03-15T07:27:14.348Z,10.95
2019-03-15T07:29:51.878Z,10.18
2019-03-15T07:32:20.453Z,10.90
2019-03-15T07:34:49.055Z,10.65
2019-03-15T07:37:17.640Z,10.65
2019-03-15T07:39:46.189Z,10.72
2019-03-15T07:42:14.800Z,9.50
2019-03-15T07:44:44.042Z,8.90
2019-03-15T07:47:14.236Z,7.85
2019-03-15T07:49:42.811Z,8.85
2019-03-15T07:52:11.379Z,8.20
2019-03-15T07:54:40.258Z,8.78
2019-03-15T07:57:09.038Z,8.45
2019-03-15T07:59:37.629Z,8.30
2019-03-15T08:02:06.185Z,8.75
2019-03-15T08:04:36.087Z,8.73
2019-03-15T08:07:04.774Z,9.23
2019-03-15T08:09:33.432Z,9.15
2019-03-15T08:12:02.080Z,8.95
2019-03-15T08:14:30.676Z,10.08
2019-03-15T08:16:59.297Z,10.82
2019-03-15T08:19:27.860Z,10.53
2019-03-15T08:21:56.772Z,10.05
2019-03-15T08:24:25.504Z,10.65
2019-03-15T08:26:55.028Z,10.28
2019-03-15T08:29:23.605Z,10.23
2019-03-15T08:31:52.244Z,9.65
2019-03-15T08:34:20.834Z,9.88
2019-03-15T08:36:51.119Z,9.18
2019-03-15T08:39:21.703Z,9.00
2019-03-15T08:41:50.327Z,9.60
2019-03-15T08:44:18.913Z,9.83
2019-03-15T08:46:47.532Z,10.28
2019-03-15T08:49:18.052Z,10.30
2019-03-15T08:51:48.664Z,10.20
2019-03-15T08:54:17.258Z,11.20
2019-03-15T08:56:45.836Z,9.83
2019-03-15T08:59:14.502Z,10.63
2019-03-15T09:01:43.119Z,11.57
2019-03-15T09:04:11.715Z,10.35
2019-03-15T09:06:41.169Z,9.93
2019-03-15T09:09:09.792Z,9.73
2019-03-15T09:11:38.365Z,9.55
2019-03-15T09:14:06.950Z,9.65
2019-03-15T09:16:35.604Z,8.75
2019-03-15T09:19:06.638Z,8.85
2019-03-15T09:21:35.309Z,8.75
2019-03-15T09:24:03.942Z,9.05
2019-03-15T09:26:32.509Z,9.70
2019-03-15T09:29:01.522Z,11.38
2019-03-15T09:31:42.307Z,11.20
2019-03-15T09:34:00.360Z,11.43
2019-03-15T09:36:29.016Z,11.08
2019-03-15T09:38:59.286Z,11.68
2019-03-15T09:41:34.236Z,11.48
2019-03-15T09:43:58.088Z,10.80
2019-03-15T09:46:26.682Z,10.30
2019-03-15T09:48:55.312Z,10.72
2019-03-15T09:51:23.879Z,9.95
2019-03-15T09:53:52.442Z,9.20
2019-03-15T09:56:21.119Z,10.03
2019-03-15T09:58:51.991Z,7.42
2019-03-15T10:01:34.215Z,7.28
2019-03-15T10:03:51.684Z,5.92
2019-03-15T10:06:20.257Z,5.80
2019-03-15T10:08:48.981Z,6.10
2019-03-15T10:11:17.562Z,6.05
2019-03-15T10:13:46.143Z,5.85
2019-03-15T10:16:14.819Z,5.47
2019-03-15T10:18:43.408Z,5.75
2019-03-15T10:21:12.010Z,5.75
2019-03-15T10:23:40.672Z,7.22
2019-03-15T10:26:09.282Z,7.30
2019-03-15T10:28:38.192Z,8.23
2019-03-15T10:31:06.840Z,8.65
2019-03-15T10:33:35.407Z,9.75
2019-03-15T10:36:04.191Z,9.75
2019-03-15T10:38:32.773Z,10.55
2019-03-15T10:41:01.544Z,10.38
2019-03-15T10:43:30.112Z,10.80
2019-03-15T10:45:58.686Z,11.20
2019-03-15T10:48:29.298Z,11.80
2019-03-15T10:50:58.329Z,11.53
2019-03-15T10:53:27.327Z,11.78
2019-03-15T10:56:00.532Z,11.57
2019-03-15T10:58:26.241Z,12.15
2019-03-15T11:00:55.341Z,11.70
2019-03-15T11:03:23.919Z,11.73
2019-03-15T11:05:52.588Z,12.55
2019-03-15T11:08:24.064Z,12.60
2019-03-15T11:10:51.764Z,12.95
2019-03-15T11:13:20.398Z,9.33
2019-03-15T11:15:51.255Z,7.60
2019-03-15T11:18:19.858Z,6.65
2019-03-15T11:20:48.921Z,5.95
2019-03-15T11:23:17.489Z,6.80
2019-03-15T11:25:46.045Z,7.20
2019-03-15T11:28:14.633Z,7.55
2019-03-15T11:30:43.249Z,8.25
2019-03-15T11:33:12.824Z,7.75
2019-03-15T11:35:41.408Z,7.58
2019-03-15T11:38:10.078Z,8.28
2019-03-15T11:40:38.636Z,7.25
2019-03-15T11:43:07.249Z,7.05
2019-03-15T11:45:35.897Z,9.63
2019-03-15T11:48:04.702Z,5.78
2019-03-15T11:50:33.517Z,5.03
2019-03-15T11:53:02.078Z,4.15
2019-03-15T11:55:30.753Z,4.53
2019-03-15T11:57:59.316Z,4.00
2019-03-15T12:00:27.975Z,4.03
2019-03-15T12:02:56.580Z,4.65
2019-03-15T12:05:25.154Z,3.50
2019-03-15T12:07:53.712Z,3.83
2019-03-15T12:10:23.962Z,3.58
2019-03-15T12:12:52.616Z,3.92
2019-03-15T12:15:21.166Z,13.20
2019-03-15T12:17:49.864Z,6.05
2019-03-15T12:20:18.442Z,4.55
2019-03-15T12:22:48.730Z,4.58
2019-03-15T12:25:17.347Z,6.28
2019-03-15T12:27:45.998Z,4.45
2019-03-15T12:30:15.703Z,4.62
2019-03-15T12:32:44.373Z,4.90
2019-03-15T12:35:16.374Z,5.03
2019-03-15T12:37:45.075Z,5.33
2019-03-15T12:40:17.601Z,5.28
2019-03-15T12:45:15.628Z,5.65
2019-03-15T12:47:44.175Z,5.05
2019-03-15T12:50:16.371Z,5.47
2019-03-15T12:52:48.970Z,5.83
2019-03-15T12:55:15.744Z,5.72
2019-03-15T12:57:44.322Z,5.55
2019-03-15T13:00:15.343Z,5.42
2019-03-15T13:02:43.914Z,5.28
2019-03-15T13:05:12.611Z,4.33
2019-03-15T13:07:41.188Z,4.25
2019-03-15T13:10:18.125Z,3.80
2019-03-15T13:12:46.693Z,4.03
2019-03-15T13:15:16.749Z,3.92
2019-03-15T13:17:45.454Z,3.70
2019-03-15T13:20:15.388Z,3.50
2019-03-15T13:22:45.639Z,3.30
2019-03-15T13:25:14.962Z,4.37
2019-03-15T13:27:43.646Z,4.00
2019-03-15T13:30:13.548Z,3.87
2019-03-15T13:32:42.221Z,4.22
2019-03-15T13:35:11.755Z,3.70
2019-03-15T13:37:42.791Z,4.78
2019-03-15T13:40:12.394Z,3.87
2019-03-15T13:42:41.088Z,5.05
2019-03-15T13:45:12.871Z,4.45
2019-03-15T13:47:41.532Z,3.33
2019-03-15T13:50:15.326Z,4.62
2019-03-15T13:52:44.017Z,4.60
2019-03-15T13:55:13.765Z,4.97
2019-03-15T13:57:42.345Z,4.28
2019-03-15T14:00:19.025Z,4.87
2019-03-15T14:02:47.908Z,4.50
2019-03-15T14:05:16.526Z,3.17
2019-03-15T14:07:45.114Z,3.60
2019-03-15T14:10:14.927Z,3.25
2019-03-15T14:12:43.937Z,3.10
2019-03-15T14:15:20.012Z,3.22
2019-03-15T14:17:48.983Z,3.80
2019-03-15T14:20:17.614Z,3.42
2019-03-15T14:22:46.207Z,4.50
2019-03-15T14:25:20.052Z,4.22
2019-03-15T14:27:48.704Z,4.80
2019-03-15T14:30:17.301Z,5.80
2019-03-15T14:32:45.902Z,5.60
2019-03-15T14:35:15.618Z,6.50
2019-03-15T14:37:44.330Z,5.97
2019-03-15T14:40:13.520Z,6.45
2019-03-15T14:42:42.100Z,5.90
2019-03-15T14:45:14.841Z,6.65
2019-03-15T14:47:43.385Z,6.25
2019-03-15T14:50:16.261Z,6.30
2019-03-15T14:52:45.774Z,6.35
2019-03-15T14:55:16.499Z,7.05
2019-03-15T14:57:52.544Z,6.85
2019-03-15T15:00:20.502Z,7.33
2019-03-15T15:02:49.546Z,7.08
2019-03-15T15:05:18.235Z,6.55
2019-03-15T15:07:46.816Z,6.80
2019-03-15T15:10:16.680Z,6.60
2019-03-15T15:12:47.910Z,4.58
2019-03-15T15:15:20.376Z,5.62
2019-03-15T15:20:18.468Z,4.40
2019-03-15T15:22:47.146Z,4.58
2019-03-15T15:25:17.640Z,4.75
2019-03-15T15:27:46.264Z,4.70
2019-03-15T15:30:17.944Z,5.15
2019-03-15T15:32:47.889Z,5.55
2019-03-15T15:35:17.471Z,5.55
2019-03-15T15:37:46.473Z,6.60
2019-03-15T15:40:18.607Z,6.33
2019-03-15T15:42:47.339Z,6.42
2019-03-15T15:45:15.980Z,6.60
2019-03-15T15:47:44.656Z,5.72
2019-03-15T15:50:16.447Z,5.53
2019-03-15T15:52:45.084Z,5.20
2019-03-15T15:55:15.785Z,5.60
2019-03-15T15:57:44.374Z,4.95
2019-03-15T16:00:17.239Z,4.67
2019-03-15T16:02:45.930Z,4.67
2019-03-15T16:05:14.867Z,3.92
2019-03-15T16:07:43.497Z,3.90
2019-03-15T16:10:18.159Z,4.45
2019-03-15T16:12:47.065Z,4.30
2019-03-15T16:15:19.581Z,4.15
2019-03-15T16:20:16.049Z,5.92
2019-03-15T16:22:44.753Z,6.15
2019-03-15T16:25:13.855Z,6.20
2019-03-15T16:27:42.506Z,6.80
2019-03-15T16:30:15.991Z,6.12
2019-03-15T16:32:44.602Z,6.70
2019-03-15T16:35:14.476Z,7.15
2019-03-15T16:37:43.227Z,7.10
2019-03-15T16:40:13.154Z,8.05
2019-03-15T16:42:41.790Z,8.30
2019-03-15T16:45:15.151Z,9.55
2019-03-15T16:47:43.920Z,11.25
2019-03-15T16:50:13.244Z,11.12
2019-03-15T16:52:41.968Z,12.15
2019-03-15T16:55:12.448Z,12.00
2019-03-15T16:57:41.170Z,10.32
2019-03-15T17:00:14.985Z,11.45
2019-03-15T17:02:44.253Z,11.10
2019-03-15T17:05:14.668Z,10.60
2019-03-15T17:07:43.336Z,11.48
2019-03-15T17:10:16.937Z,11.28
2019-03-15T17:12:46.657Z,10.68
2019-03-15T17:15:23.339Z,10.53
2019-03-15T17:17:51.968Z,14.38
2019-03-15T17:20:22.623Z,11.30
2019-03-15T17:22:51.256Z,12.30
2019-03-15T17:25:20.818Z,10.80
2019-03-15T17:27:49.446Z,11.22
2019-03-15T17:30:18.350Z,11.60
2019-03-15T17:32:47.058Z,10.85
2019-03-15T17:35:18.503Z,11.05
2019-03-15T17:37:47.124Z,10.48
2019-03-15T17:40:20.533Z,10.90
2019-03-15T17:42:49.194Z,11.28
2019-03-15T17:45:17.932Z,11.55
2019-03-15T17:47:47.299Z,10.68
2019-03-15T17:50:18.135Z,11.10
2019-03-15T17:52:47.175Z,9.08
2019-03-15T17:55:17.373Z,9.58
2019-03-15T17:57:49.008Z,8.68
2019-03-15T18:00:30.888Z,8.80
2019-03-15T18:03:01.723Z,9.05
2019-03-15T18:05:30.357Z,9.50
2019-03-15T18:07:59.021Z,9.33
2019-03-15T18:10:27.743Z,9.40
2019-03-15T18:12:56.314Z,9.83
2019-03-15T18:15:24.993Z,9.73
2019-03-15T18:17:53.587Z,11.88
2019-03-15T18:20:23.208Z,10.15
2019-03-15T18:22:51.911Z,9.50
2019-03-15T18:25:20.547Z,9.95
2019-03-15T18:27:49.276Z,9.75
2019-03-15T18:30:18.263Z,9.60
2019-03-15T18:32:47.016Z,10.72
2019-03-15T18:35:15.772Z,10.00
2019-03-15T18:37:44.468Z,10.88
2019-03-15T18:40:15.655Z,9.30
2019-03-15T18:42:44.248Z,9.28
2019-03-15T18:45:14.094Z,9.35
2019-03-15T18:47:42.906Z,9.68
2019-03-15T18:50:20.394Z,9.95
2019-03-15T18:52:49.261Z,10.72
2019-03-15T18:55:17.934Z,11.93
2019-03-15T18:57:46.606Z,12.40
2019-03-15T19:00:20.179Z,11.50
2019-03-15T19:02:49.095Z,12.15
2019-03-15T19:05:17.791Z,11.57
2019-03-15T19:07:46.428Z,10.82
2019-03-15T19:10:15.959Z,11.15
2019-03-15T19:12:44.713Z,12.53
2019-03-15T19:15:15.711Z,11.65
2019-03-15T19:17:44.387Z,11.78
2019-03-15T19:20:14.398Z,12.28
2019-03-15T19:22:43.054Z,13.00
2019-03-15T19:25:12.291Z,12.63
2019-03-15T19:27:40.901Z,12.05
2019-03-15T19:30:22.073Z,11.63
2019-03-15T19:32:50.626Z,12.30
2019-03-15T19:35:19.223Z,11.95
2019-03-15T19:37:47.817Z,12.23
2019-03-15T19:40:17.455Z,11.10
2019-03-15T19:42:46.095Z,11.85
2019-03-15T19:45:17.864Z,13.40
2019-03-15T19:47:46.495Z,12.45
2019-03-15T19:50:17.091Z,12.40
2019-03-15T19:52:46.858Z,16.12
2019-03-15T19:55:16.829Z,13.85
2019-03-15T19:57:45.443Z,13.32
2019-03-15T20:00:15.605Z,13.32
2019-03-15T20:02:44.332Z,13.85
2019-03-15T20:05:15.045Z,11.85
2019-03-15T20:07:43.770Z,11.90
2019-03-15T20:10:16.741Z,11.68
2019-03-15T20:12:45.347Z,12.28
2019-03-15T20:15:17.295Z,11.48
2019-03-15T20:17:46.545Z,13.05
2019-03-15T20:20:19.426Z,11.03
2019-03-15T20:22:48.028Z,11.03
2019-03-15T20:25:19.044Z,10.25
2019-03-15T20:27:48.633Z,10.93
2019-03-15T20:30:26.218Z,13.83
2019-03-15T20:32:52.638Z,11.93
2019-03-15T20:35:21.262Z,10.30
2019-03-15T20:37:49.858Z,10.03
2019-03-15T20:40:18.468Z,10.35
2019-03-15T20:42:47.085Z,10.95
2019-03-15T20:45:20.309Z,10.72
2019-03-15T20:47:48.910Z,10.68
2019-03-15T20:50:17.522Z,10.82
2019-03-15T20:52:46.109Z,10.78
2019-03-15T20:55:15.077Z,10.65
2019-03-15T20:57:44.612Z,10.45
2019-03-15T21:00:20.024Z,10.48
2019-03-15T21:02:48.617Z,10.10
2019-03-15T21:05:17.189Z,10.68
2019-03-15T21:07:45.891Z,11.08
2019-03-15T21:10:15.794Z,10.63
2019-03-15T21:12:44.423Z,11.80
2019-03-15T21:15:14.185Z,10.40
2019-03-15T21:17:42.822Z,11.95
2019-03-15T21:20:16.359Z,11.50
2019-03-15T21:22:45.047Z,12.13
2019-03-15T21:25:16.700Z,12.63
2019-03-15T21:27:53.746Z,10.78
2019-03-15T21:30:19.982Z,11.35
2019-03-15T21:32:48.926Z,10.63
2019-03-15T21:35:17.499Z,11.48
2019-03-15T21:37:46.186Z,11.28
2019-03-15T21:40:16.875Z,10.55
2019-03-15T21:42:45.450Z,10.85
2019-03-15T21:45:14.423Z,11.80
2019-03-15T21:47:42.992Z,10.95
2019-03-15T21:50:15.829Z,11.00
2019-03-15T21:52:44.396Z,11.75
2019-03-15T21:55:13.210Z,11.12
2019-03-15T21:57:41.793Z,10.68
2019-03-15T22:00:16.547Z,12.00
2019-03-15T22:02:46.807Z,11.50
2019-03-15T22:05:16.400Z,11.05
2019-03-15T22:07:45.046Z,11.15
2019-03-15T22:10:15.784Z,10.40
2019-03-15T22:12:50.141Z,10.75
2019-03-15T22:15:21.136Z,11.10
2019-03-15T22:17:49.835Z,11.15
2019-03-15T22:20:19.551Z,11.05
2019-03-15T22:22:49.052Z,9.93
2019-03-15T22:25:18.065Z,11.08
2019-03-15T22:27:49.935Z,9.23
2019-03-15T22:30:17.846Z,10.68
2019-03-15T22:32:46.599Z,10.43
2019-03-15T22:35:15.626Z,11.85
2019-03-15T22:37:44.275Z,10.78
2019-03-15T22:40:13.733Z,10.93
2019-03-15T22:42:42.448Z,10.03
2019-03-15T22:45:12.050Z,10.50
2019-03-15T22:47:40.852Z,10.03
2019-03-15T22:50:11.171Z,10.20
2019-03-15T22:52:42.823Z,9.95
2019-03-15T22:55:11.747Z,10.03
2019-03-15T22:57:40.638Z,9.88
2019-03-15T23:00:12.495Z,10.25
2019-03-15T23:02:41.682Z,10.03
2019-03-15T23:05:10.584Z,10.68
2019-03-15T23:07:39.122Z,9.83
2019-03-15T23:10:10.245Z,11.40
2019-03-15T23:12:38.953Z,10.28
2019-03-15T23:15:09.789Z,6.50
2019-03-15T23:17:38.383Z,3.10
2019-03-15T23:20:09.104Z,3.65
2019-03-15T23:22:38.692Z,2.80
2019-03-15T23:25:08.216Z,2.27
2019-03-15T23:27:36.907Z,2.40
2019-03-15T23:30:13.996Z,2.55
2019-03-15T23:32:42.673Z,1.90
2019-03-15T23:35:13.321Z,2.55
2019-03-15T23:37:41.946Z,2.67
2019-03-15T23:40:17.691Z,2.47
2019-03-15T23:42:46.631Z,2.80
2019-03-15T23:45:15.200Z,2.83
2019-03-15T23:47:43.941Z,3.35
2019-03-15T23:50:15.646Z,2.92
2019-03-15T23:52:44.459Z,3.65
2019-03-15T23:55:13.286Z,3.37
2019-03-15T23:57:42.085Z,3.85
